Terminal Aerodrome Forecast
Issued by NWS

Current Version | Previous Version | Graphics & Text | Print | Product List | Glossary On
Versions: 1 2 3 4 5 6 7 8 9 10 11 12 13 14 15 16 17 18 19 20 21 22 23 24 25
000
FTUS41 KILN 212059 AAB
TAFLUK
TAF AMD
KLUK 212059Z 2121/2218 21010KT 5SM -TSRA BR BKN025CB OVC035
      TEMPO 2121/2122 2SM +TSRA BR
     FM212200 25009KT P6SM SCT035
     FM220100 29006KT P6SM SCT035
     FM221600 29007KT P6SM FEW040 SCT250=

USA.gov is the U.S. government's official web portal to all federal, state and local government web resources and services.